createdAt,value
2017-11-15T00:00:22.450Z,15.90
2017-11-15T00:02:49.999Z,15.27
2017-11-15T00:05:17.559Z,17.40
2017-11-15T00:07:45.125Z,16.20
2017-11-15T00:10:12.686Z,14.63
2017-11-15T00:12:40.258Z,15.90
2017-11-15T00:15:07.828Z,15.30
2017-11-15T00:17:36.144Z,16.25
2017-11-15T00:20:03.698Z,14.65
2017-11-15T00:22:37.265Z,14.60
2017-11-15T00:25:05.599Z,14.55
2017-11-15T00:27:33.158Z,15.05
2017-11-15T00:30:00.712Z,14.57
2017-11-15T00:32:28.274Z,15.55
2017-11-15T00:34:55.833Z,14.07
2017-11-15T00:37:23.389Z,14.25
2017-11-15T00:39:50.966Z,14.80
2017-11-15T00:42:18.533Z,14.45
2017-11-15T00:44:46.090Z,14.07
2017-11-15T00:47:13.638Z,14.77
2017-11-15T00:49:41.187Z,14.60
2017-11-15T00:52:08.750Z,14.75
2017-11-15T00:54:36.403Z,13.00
2017-11-15T00:57:03.960Z,13.32
2017-11-15T00:59:31.518Z,13.32
2017-11-15T01:01:59.063Z,13.38
2017-11-15T01:04:27.395Z,13.52
2017-11-15T01:06:54.955Z,13.18
2017-11-15T01:09:22.525Z,12.90
2017-11-15T01:11:50.081Z,14.70
2017-11-15T01:14:18.408Z,16.08
2017-11-15T01:16:45.955Z,16.60
2017-11-15T01:19:14.370Z,15.45
2017-11-15T01:21:41.923Z,14.15
2017-11-15T01:24:09.470Z,12.98
2017-11-15T01:26:37.792Z,14.02
2017-11-15T01:29:05.353Z,13.38
2017-11-15T01:31:33.000Z,13.80
2017-11-15T01:34:00.562Z,12.43
2017-11-15T01:36:28.126Z,13.00
2017-11-15T01:38:55.691Z,12.32
2017-11-15T01:41:23.246Z,13.00
2017-11-15T01:43:50.825Z,12.43
2017-11-15T01:46:18.379Z,12.88
2017-11-15T01:48:45.941Z,14.45
2017-11-15T01:51:13.487Z,13.05
2017-11-15T01:53:41.041Z,13.00
2017-11-15T01:56:08.598Z,14.20
2017-11-15T01:58:36.135Z,12.07
2017-11-15T02:01:14.504Z,12.70
2017-11-15T02:03:42.059Z,12.75
2017-11-15T02:06:09.614Z,12.10
2017-11-15T02:08:37.155Z,12.70
2017-11-15T02:11:04.709Z,12.30
2017-11-15T02:13:32.273Z,13.85
2017-11-15T02:15:59.813Z,13.50
2017-11-15T02:18:27.370Z,12.93
2017-11-15T02:20:54.957Z,13.25
2017-11-15T02:23:22.532Z,12.37
2017-11-15T02:25:50.110Z,13.40
2017-11-15T02:28:17.669Z,13.23
2017-11-15T02:30:45.229Z,13.00
2017-11-15T02:33:12.821Z,13.75
2017-11-15T02:35:41.165Z,13.30
2017-11-15T02:38:08.718Z,13.13
2017-11-15T02:40:37.044Z,12.43
2017-11-15T02:43:05.358Z,13.60
2017-11-15T02:45:32.907Z,12.77
2017-11-15T02:48:00.494Z,13.52
2017-11-15T02:50:28.051Z,13.00
2017-11-15T02:52:55.614Z,13.60
2017-11-15T02:55:23.209Z,13.62
2017-11-15T02:57:51.635Z,13.90
2017-11-15T03:00:19.181Z,14.07
2017-11-15T03:02:46.734Z,13.52
2017-11-15T03:05:14.293Z,13.73
2017-11-15T03:07:41.870Z,13.23
2017-11-15T03:10:09.459Z,13.23
2017-11-15T03:12:37.031Z,13.13
2017-11-15T03:15:04.565Z,13.27
2017-11-15T03:17:32.118Z,12.52
2017-11-15T03:19:59.666Z,11.95
2017-11-15T03:22:27.204Z,13.60
2017-11-15T03:24:54.777Z,13.27
2017-11-15T03:27:22.333Z,13.50
2017-11-15T03:29:49.875Z,13.32
2017-11-15T03:32:18.168Z,13.05
2017-11-15T03:34:45.728Z,13.13
2017-11-15T03:37:13.294Z,14.05
2017-11-15T03:39:40.842Z,12.77
2017-11-15T03:42:08.418Z,13.10
2017-11-15T03:44:35.968Z,13.60
2017-11-15T03:47:03.524Z,12.68
2017-11-15T03:49:31.859Z,13.52
2017-11-15T03:51:59.417Z,12.88
2017-11-15T03:54:26.950Z,13.57
2017-11-15T03:56:54.531Z,14.30
2017-11-15T03:59:22.109Z,13.82
2017-11-15T04:01:49.659Z,14.10
2017-11-15T04:04:17.205Z,14.02
2017-11-15T04:06:44.766Z,14.20
2017-11-15T04:09:12.307Z,12.90
2017-11-15T04:11:39.865Z,14.00
2017-11-15T04:14:07.434Z,14.10
2017-11-15T04:16:34.986Z,13.32
2017-11-15T04:19:02.557Z,14.27
2017-11-15T04:21:30.089Z,13.90
2017-11-15T04:23:58.473Z,14.25
2017-11-15T04:26:26.804Z,13.00
2017-11-15T04:28:54.344Z,13.65
2017-11-15T04:31:21.892Z,12.90
2017-11-15T04:33:49.445Z,13.43
2017-11-15T04:36:16.997Z,13.75
2017-11-15T04:38:45.305Z,13.98
2017-11-15T04:41:12.879Z,13.38
2017-11-15T04:43:40.419Z,13.38
2017-11-15T04:46:07.977Z,12.95
2017-11-15T04:48:35.518Z,12.70
2017-11-15T04:51:03.082Z,13.52
2017-11-15T04:53:30.637Z,14.35
2017-11-15T04:55:58.198Z,12.80
2017-11-15T04:58:25.751Z,13.57
2017-11-15T05:00:54.048Z,13.45
2017-11-15T05:03:21.613Z,13.60
2017-11-15T05:05:49.150Z,12.90
2017-11-15T05:08:17.459Z,13.62
2017-11-15T05:10:45.049Z,14.23
2017-11-15T05:13:12.633Z,14.02
2017-11-15T05:15:40.954Z,14.30
2017-11-15T05:18:08.517Z,13.75
2017-11-15T05:20:36.063Z,14.55
2017-11-15T05:23:03.600Z,14.63
2017-11-15T05:25:31.934Z,12.65
2017-11-15T05:27:59.472Z,14.77
2017-11-15T05:30:27.035Z,14.57
2017-11-15T05:32:54.584Z,14.20
2017-11-15T05:35:22.172Z,14.80
2017-11-15T05:37:49.734Z,15.13
2017-11-15T05:40:17.283Z,14.13
2017-11-15T05:42:44.876Z,15.02
2017-11-15T05:45:12.428Z,15.23
2017-11-15T05:47:39.991Z,15.05
2017-11-15T05:50:07.553Z,14.25
2017-11-15T05:52:35.134Z,13.90
2017-11-15T05:55:03.457Z,13.50
2017-11-15T05:57:31.015Z,14.65
2017-11-15T05:59:58.574Z,16.33
2017-11-15T06:02:26.127Z,16.48
2017-11-15T06:04:53.793Z,17.40
2017-11-15T06:07:21.352Z,22.10
2017-11-15T06:09:48.974Z,23.27
2017-11-15T06:12:16.589Z,18.67
2017-11-15T06:14:44.854Z,18.40
2017-11-15T06:17:12.483Z,17.87
2017-11-15T06:19:40.833Z,15.15
2017-11-15T06:22:08.425Z,17.00
2017-11-15T06:24:36.045Z,15.88
2017-11-15T06:27:03.555Z,16.05
2017-11-15T06:29:31.989Z,15.38
2017-11-15T06:31:59.406Z,14.52
2017-11-15T06:34:26.989Z,15.32
2017-11-15T06:36:54.679Z,14.15
2017-11-15T06:39:22.926Z,14.25
2017-11-15T06:41:50.486Z,14.05
2017-11-15T06:44:18.034Z,15.82
2017-11-15T06:46:45.590Z,15.35
2017-11-15T06:49:13.347Z,16.00
2017-11-15T06:51:40.919Z,17.02
2017-11-15T06:54:08.492Z,16.02
2017-11-15T06:56:36.071Z,15.93
2017-11-15T06:59:03.654Z,15.25
2017-11-15T07:01:31.982Z,14.57
2017-11-15T07:03:59.578Z,15.48
2017-11-15T07:06:27.142Z,14.75
2017-11-15T07:08:54.706Z,15.15
2017-11-15T07:11:23.054Z,15.70
2017-11-15T07:13:50.608Z,15.20
2017-11-15T07:16:18.230Z,15.30
2017-11-15T07:18:48.078Z,16.27
2017-11-15T07:21:15.632Z,15.55
2017-11-15T07:23:43.181Z,15.65
2017-11-15T07:26:10.741Z,16.37
2017-11-15T07:28:38.308Z,18.00
2017-11-15T07:31:05.874Z,18.55
2017-11-15T07:33:33.432Z,18.42
2017-11-15T07:36:00.995Z,19.90
2017-11-15T07:38:28.599Z,20.88
2017-11-15T07:40:56.923Z,20.20
2017-11-15T07:43:24.496Z,20.70
2017-11-15T07:45:52.050Z,19.60
2017-11-15T07:48:19.622Z,19.27
2017-11-15T07:50:47.171Z,19.52
2017-11-15T07:53:14.729Z,22.00
2017-11-15T07:55:42.308Z,18.77
2017-11-15T07:58:09.861Z,19.50
2017-11-15T08:00:37.418Z,21.10
2017-11-15T08:03:04.974Z,20.65
2017-11-15T08:05:32.505Z,20.20
2017-11-15T08:08:00.155Z,20.90
2017-11-15T08:10:28.470Z,21.30
2017-11-15T08:12:56.034Z,22.73
2017-11-15T08:15:23.614Z,19.92
2017-11-15T08:17:51.151Z,20.85
2017-11-15T08:20:18.704Z,21.45
2017-11-15T08:22:46.261Z,21.42
2017-11-15T08:25:13.802Z,22.17
2017-11-15T08:27:41.364Z,23.10
2017-11-15T08:30:08.948Z,21.30
2017-11-15T08:32:36.515Z,21.62
2017-11-15T08:35:04.124Z,21.35
2017-11-15T08:37:32.455Z,21.17
2017-11-15T08:40:04.678Z,22.75
2017-11-15T08:42:33.022Z,21.60
2017-11-15T08:45:00.602Z,21.80
2017-11-15T08:47:31.284Z,21.73
2017-11-15T08:49:59.169Z,21.02
2017-11-15T08:52:26.729Z,22.08
2017-11-15T08:54:54.342Z,21.50
2017-11-15T08:57:22.645Z,20.90
2017-11-15T08:59:50.202Z,20.60
2017-11-15T09:02:17.916Z,20.73
2017-11-15T09:04:45.480Z,20.35
2017-11-15T09:07:13.032Z,21.65
2017-11-15T09:09:40.619Z,21.70
2017-11-15T09:12:08.935Z,20.77
2017-11-15T09:14:36.510Z,20.20
2017-11-15T09:17:04.077Z,20.48
2017-11-15T09:19:31.673Z,19.00
2017-11-15T09:22:00.024Z,20.48
2017-11-15T09:24:27.595Z,20.45
2017-11-15T09:26:55.167Z,20.23
2017-11-15T09:29:23.505Z,19.90
2017-11-15T09:31:51.054Z,21.52
2017-11-15T09:34:18.607Z,22.37
2017-11-15T09:36:46.175Z,25.17
2017-11-15T09:39:16.971Z,21.87
2017-11-15T09:41:45.394Z,21.35
2017-11-15T09:44:12.951Z,21.30
2017-11-15T09:46:40.518Z,22.85
2017-11-15T09:49:08.067Z,22.52
2017-11-15T09:51:35.635Z,21.62
2017-11-15T09:54:03.182Z,20.42
2017-11-15T09:56:30.758Z,22.00
2017-11-15T09:58:58.295Z,22.75
2017-11-15T10:04:15.653Z,20.58
2017-11-15T10:06:43.220Z,21.50
2017-11-15T10:09:10.783Z,20.77
2017-11-15T10:11:38.335Z,20.65
2017-11-15T10:14:05.936Z,21.70
2017-11-15T10:16:34.252Z,20.67
2017-11-15T10:19:14.305Z,20.70
2017-11-15T10:21:43.497Z,19.92
2017-11-15T10:24:11.059Z,48.33
2017-11-15T10:26:38.596Z,21.80
2017-11-15T10:29:06.940Z,20.70
2017-11-15T10:31:34.532Z,20.48
2017-11-15T10:34:02.892Z,20.73
2017-11-15T10:36:30.439Z,19.55
2017-11-15T10:38:58.012Z,21.10
2017-11-15T10:41:26.370Z,18.83
2017-11-15T10:46:57.488Z,20.57
2017-11-15T18:29:52.847Z,30.52
2017-11-15T18:32:20.532Z,34.30
2017-11-15T18:34:48.365Z,45.05
2017-11-15T18:37:16.466Z,43.90
2017-11-15T18:39:44.365Z,43.83
2017-11-15T18:42:12.273Z,41.47
2017-11-15T18:44:40.226Z,35.05
2017-11-15T18:47:08.167Z,34.95
2017-11-15T18:49:41.136Z,41.53
2017-11-15T18:52:09.301Z,33.00
2017-11-15T18:54:37.196Z,31.80
2017-11-15T18:57:06.162Z,27.60
2017-11-15T18:59:34.866Z,25.48
2017-11-15T19:02:03.060Z,25.17
2017-11-15T19:04:31.032Z,24.83
2017-11-15T19:06:59.161Z,27.37
2017-11-15T19:09:27.338Z,25.77
2017-11-15T19:11:55.375Z,27.02
2017-11-15T19:14:23.330Z,28.40
2017-11-15T19:16:51.186Z,28.85
2017-11-15T19:19:19.843Z,27.37
2017-11-15T19:21:47.743Z,26.23
2017-11-15T19:24:15.587Z,27.80
2017-11-15T19:26:43.480Z,27.87
2017-11-15T19:29:12.196Z,28.92
2017-11-15T19:31:40.093Z,30.20
2017-11-15T19:34:07.957Z,28.98
2017-11-15T19:36:35.849Z,27.30
2017-11-15T19:39:03.700Z,25.17
2017-11-15T19:41:31.594Z,23.52
2017-11-15T19:44:00.251Z,25.10
2017-11-15T19:46:28.092Z,26.27
2017-11-15T19:48:55.967Z,27.33
2017-11-15T19:51:23.820Z,25.12
2017-11-15T19:53:51.705Z,29.77
2017-11-15T19:56:19.621Z,26.85
2017-11-15T19:58:47.507Z,27.87
2017-11-15T20:01:15.483Z,28.02
2017-11-15T20:03:43.407Z,28.70
2017-11-15T20:06:11.236Z,28.92
2017-11-15T20:08:39.118Z,28.25
2017-11-15T20:11:07.431Z,28.38
2017-11-15T20:13:35.449Z,28.58
2017-11-15T20:16:03.364Z,28.33
2017-11-15T20:18:31.244Z,28.12
2017-11-15T20:20:59.918Z,28.75
2017-11-15T20:23:27.762Z,25.85
2017-11-15T20:25:55.593Z,28.38
2017-11-15T20:28:23.409Z,27.87
2017-11-15T20:30:51.247Z,28.02
2017-11-15T20:33:19.104Z,28.55
2017-11-15T20:35:46.754Z,27.45
2017-11-15T20:38:14.364Z,27.60
2017-11-15T20:40:41.941Z,29.40
2017-11-15T20:43:09.507Z,33.78
2017-11-15T20:45:37.067Z,39.08
2017-11-15T20:48:04.627Z,34.25
2017-11-15T20:50:32.215Z,32.88
2017-11-15T20:52:59.791Z,28.55
2017-11-15T20:55:28.144Z,28.05
2017-11-15T20:57:55.710Z,26.02
2017-11-15T21:00:23.284Z,26.42
2017-11-15T21:02:50.853Z,26.90
2017-11-15T21:05:19.159Z,24.40
2017-11-15T21:07:46.760Z,32.10
2017-11-15T21:10:14.310Z,37.75
2017-11-15T21:12:41.904Z,38.33
2017-11-15T21:15:09.464Z,32.13
2017-11-15T21:17:37.807Z,34.97
2017-11-15T21:20:05.394Z,33.13
2017-11-15T21:22:33.754Z,34.03
2017-11-15T21:25:01.344Z,35.13
2017-11-15T21:27:28.901Z,31.30
2017-11-15T21:29:56.450Z,28.73
2017-11-15T21:32:24.034Z,29.95
2017-11-15T21:34:52.357Z,28.25
2017-11-15T21:37:20.013Z,24.80
2017-11-15T21:39:47.589Z,26.75
2017-11-15T21:42:15.187Z,26.98
2017-11-15T21:44:42.754Z,29.83
2017-11-15T21:47:11.083Z,29.58
2017-11-15T21:49:38.677Z,26.75
2017-11-15T21:52:06.229Z,28.50
2017-11-15T21:54:33.788Z,28.50
2017-11-15T21:57:01.413Z,27.02
2017-11-15T21:59:28.986Z,28.50
2017-11-15T22:01:56.570Z,28.15
2017-11-15T22:04:24.149Z,27.83
2017-11-15T22:06:52.481Z,28.02
2017-11-15T22:09:20.030Z,30.65
2017-11-15T22:11:47.589Z,30.48
2017-11-15T22:14:15.147Z,28.67
2017-11-15T22:16:42.692Z,27.42
2017-11-15T22:19:10.275Z,28.27
2017-11-15T22:21:37.809Z,28.12
2017-11-15T22:24:06.149Z,27.48
2017-11-15T22:26:33.718Z,28.17
2017-11-15T22:29:01.294Z,28.65
2017-11-15T22:31:29.610Z,29.70
2017-11-15T22:33:57.204Z,29.33
2017-11-15T22:36:24.763Z,30.42
2017-11-15T22:38:52.361Z,29.73
2017-11-15T22:41:20.691Z,25.95
2017-11-15T22:43:48.272Z,29.73
2017-11-15T22:46:15.838Z,29.73
2017-11-15T22:48:43.399Z,28.30
2017-11-15T22:51:10.983Z,27.15
2017-11-15T22:53:39.315Z,27.83
2017-11-15T22:56:06.890Z,29.05
2017-11-15T22:58:34.486Z,30.77
2017-11-15T23:01:02.814Z,29.58
2017-11-15T23:03:31.136Z,27.52
2017-11-15T23:05:59.474Z,29.20
2017-11-15T23:08:27.109Z,29.27
2017-11-15T23:10:54.678Z,26.23
2017-11-15T23:13:22.242Z,27.85
2017-11-15T23:15:49.803Z,27.85
2017-11-15T23:18:17.379Z,26.60
2017-11-15T23:20:44.919Z,27.95
2017-11-15T23:23:12.505Z,28.38
2017-11-15T23:25:40.053Z,26.20
2017-11-15T23:28:07.607Z,26.87
2017-11-15T23:30:35.186Z,26.27
2017-11-15T23:33:02.812Z,26.70
2017-11-15T23:35:30.383Z,25.17
2017-11-15T23:37:57.953Z,26.87
2017-11-15T23:40:25.515Z,25.75
2017-11-15T23:42:53.126Z,25.40
2017-11-15T23:45:21.450Z,24.40
2017-11-15T23:47:49.046Z,25.17
2017-11-15T23:50:16.590Z,24.90
2017-11-15T23:52:44.174Z,23.73
2017-11-15T23:55:12.481Z,23.50
2017-11-15T23:57:40.059Z,24.77
